Terminal Aerodrome Forecast
Issued by NWS St Louis, MO

Home | Current Version | Previous Version | Text Only | Print | Product List | Glossary On
Versions: 1 2 3 4 5 6 7 8 9 10 11 12 13 14 15 16 17 18 19 20 21 22 23 24 25 26 27 28 29 30 31
341
FTUS43 KLSX 251428 AAA
TAFCOU
TAF AMD
KCOU 251428Z 2514/2612 15007KT P6SM SCT018 BKN080
      TEMPO 2514/2517 BKN018
     FM251700 13007KT 6SM -SHRA VCTS OVC050CB
     FM252100 VRB04KT P6SM OVC040
     FM260600 27008KT P6SM OVC020=

USA.gov is the U.S. government's official web portal to all federal, state and local government web resources and services.